sensor_id;sensor_type;location;lat;lon;timestamp;P1;durP1;ratioP1;P2;durP2;ratioP2
47365;SDS011;33105;47.964;7.982;2023-06-04T00:00:47;14.60;;;7.40;;
47365;SDS011;33105;47.964;7.982;2023-06-04T00:03:48;12.20;;;7.40;;
47365;SDS011;33105;47.964;7.982;2023-06-04T00:06:49;12.25;;;7.60;;
47365;SDS011;33105;47.964;7.982;2023-06-04T00:09:51;11.15;;;7.82;;
47365;SDS011;33105;47.964;7.982;2023-06-04T00:12:53;10.98;;;7.40;;
47365;SDS011;33105;47.964;7.982;2023-06-04T00:15:54;13.13;;;8.35;;
47365;SDS011;33105;47.964;7.982;2023-06-04T00:18:56;11.55;;;7.93;;
47365;SDS011;33105;47.964;7.982;2023-06-04T00:21:57;11.85;;;8.25;;
47365;SDS011;33105;47.964;7.982;2023-06-04T00:24:58;18.65;;;8.13;;
47365;SDS011;33105;47.964;7.982;2023-06-04T00:27:59;12.63;;;7.65;;
47365;SDS011;33105;47.964;7.982;2023-06-04T00:31:02;11.40;;;7.93;;
47365;SDS011;33105;47.964;7.982;2023-06-04T00:34:05;12.30;;;7.90;;
47365;SDS011;33105;47.964;7.982;2023-06-04T00:37:06;14.00;;;8.30;;
47365;SDS011;33105;47.964;7.982;2023-06-04T00:40:08;12.50;;;7.50;;
47365;SDS011;33105;47.964;7.982;2023-06-04T00:43:09;14.43;;;7.88;;
47365;SDS011;33105;47.964;7.982;2023-06-04T00:46:11;13.35;;;7.60;;
47365;SDS011;33105;47.964;7.982;2023-06-04T00:49:19;11.32;;;7.45;;
47365;SDS011;33105;47.964;7.982;2023-06-04T00:52:21;11.60;;;7.40;;
47365;SDS011;33105;47.964;7.982;2023-06-04T00:55:22;9.98;;;7.30;;
47365;SDS011;33105;47.964;7.982;2023-06-04T00:58:23;12.00;;;8.18;;
47365;SDS011;33105;47.964;7.982;2023-06-04T01:01:49;15.75;;;8.43;;
47365;SDS011;33105;47.964;7.982;2023-06-04T01:05:14;20.38;;;8.90;;
47365;SDS011;33105;47.964;7.982;2023-06-04T01:08:23;13.90;;;8.30;;
47365;SDS011;33105;47.964;7.982;2023-06-04T01:11:31;13.30;;;8.55;;
47365;SDS011;33105;47.964;7.982;2023-06-04T01:14:36;18.38;;;8.43;;
47365;SDS011;33105;47.964;7.982;2023-06-04T01:17:39;12.13;;;8.43;;
47365;SDS011;33105;47.964;7.982;2023-06-04T01:20:43;13.18;;;8.15;;
47365;SDS011;33105;47.964;7.982;2023-06-04T01:23:50;14.38;;;8.48;;
47365;SDS011;33105;47.964;7.982;2023-06-04T01:26:59;14.30;;;8.52;;
47365;SDS011;33105;47.964;7.982;2023-06-04T01:30:01;15.10;;;8.85;;
47365;SDS011;33105;47.964;7.982;2023-06-04T01:33:04;11.52;;;8.80;;
47365;SDS011;33105;47.964;7.982;2023-06-04T01:36:06;14.48;;;8.30;;
47365;SDS011;33105;47.964;7.982;2023-06-04T01:39:10;10.43;;;7.97;;
47365;SDS011;33105;47.964;7.982;2023-06-04T01:42:12;12.93;;;7.80;;
47365;SDS011;33105;47.964;7.982;2023-06-04T01:45:13;10.63;;;7.95;;
47365;SDS011;33105;47.964;7.982;2023-06-04T01:48:14;13.20;;;8.30;;
47365;SDS011;33105;47.964;7.982;2023-06-04T01:51:16;12.38;;;8.20;;
47365;SDS011;33105;47.964;7.982;2023-06-04T01:54:17;11.35;;;8.18;;
47365;SDS011;33105;47.964;7.982;2023-06-04T01:57:19;13.20;;;8.98;;
47365;SDS011;33105;47.964;7.982;2023-06-04T02:00:21;10.23;;;7.97;;
47365;SDS011;33105;47.964;7.982;2023-06-04T02:03:22;12.00;;;7.68;;
47365;SDS011;33105;47.964;7.982;2023-06-04T02:06:24;10.52;;;7.68;;
47365;SDS011;33105;47.964;7.982;2023-06-04T02:09:25;9.65;;;7.55;;
47365;SDS011;33105;47.964;7.982;2023-06-04T02:12:27;10.93;;;7.55;;
47365;SDS011;33105;47.964;7.982;2023-06-04T02:15:28;15.73;;;7.47;;
47365;SDS011;33105;47.964;7.982;2023-06-04T02:18:31;11.88;;;7.32;;
47365;SDS011;33105;47.964;7.982;2023-06-04T02:21:32;9.82;;;7.47;;
47365;SDS011;33105;47.964;7.982;2023-06-04T02:24:33;14.65;;;7.68;;
47365;SDS011;33105;47.964;7.982;2023-06-04T02:27:34;12.43;;;7.40;;
47365;SDS011;33105;47.964;7.982;2023-06-04T02:30:36;11.98;;;7.43;;
47365;SDS011;33105;47.964;7.982;2023-06-04T02:33:37;9.48;;;6.90;;
47365;SDS011;33105;47.964;7.982;2023-06-04T02:36:38;12.25;;;7.82;;
47365;SDS011;33105;47.964;7.982;2023-06-04T02:39:39;17.83;;;7.35;;
47365;SDS011;33105;47.964;7.982;2023-06-04T02:42:41;9.98;;;7.30;;
47365;SDS011;33105;47.964;7.982;2023-06-04T02:45:42;12.63;;;7.88;;
47365;SDS011;33105;47.964;7.982;2023-06-04T02:48:43;15.48;;;7.82;;
47365;SDS011;33105;47.964;7.982;2023-06-04T02:51:44;10.05;;;7.00;;
47365;SDS011;33105;47.964;7.982;2023-06-04T02:54:46;15.98;;;8.15;;
47365;SDS011;33105;47.964;7.982;2023-06-04T02:57:47;10.25;;;6.97;;
47365;SDS011;33105;47.964;7.982;2023-06-04T03:00:48;11.00;;;7.60;;
47365;SDS011;33105;47.964;7.982;2023-06-04T03:03:50;12.13;;;7.57;;
47365;SDS011;33105;47.964;7.982;2023-06-04T03:06:52;13.40;;;7.88;;
47365;SDS011;33105;47.964;7.982;2023-06-04T03:09:58;16.45;;;8.00;;
47365;SDS011;33105;47.964;7.982;2023-06-04T03:13:00;10.93;;;7.20;;
47365;SDS011;33105;47.964;7.982;2023-06-04T03:16:02;13.70;;;7.90;;
47365;SDS011;33105;47.964;7.982;2023-06-04T03:19:04;12.18;;;6.80;;
47365;SDS011;33105;47.964;7.982;2023-06-04T03:22:06;12.77;;;7.70;;
47365;SDS011;33105;47.964;7.982;2023-06-04T03:25:09;12.57;;;7.78;;
47365;SDS011;33105;47.964;7.982;2023-06-04T03:28:10;12.43;;;7.95;;
47365;SDS011;33105;47.964;7.982;2023-06-04T03:31:11;12.82;;;6.97;;
47365;SDS011;33105;47.964;7.982;2023-06-04T03:34:13;10.93;;;7.25;;
47365;SDS011;33105;47.964;7.982;2023-06-04T03:37:14;12.27;;;7.03;;
47365;SDS011;33105;47.964;7.982;2023-06-04T03:40:17;14.13;;;7.72;;
47365;SDS011;33105;47.964;7.982;2023-06-04T03:43:20;12.50;;;7.25;;
47365;SDS011;33105;47.964;7.982;2023-06-04T03:46:24;11.05;;;7.47;;
47365;SDS011;33105;47.964;7.982;2023-06-04T03:49:27;9.57;;;7.20;;
47365;SDS011;33105;47.964;7.982;2023-06-04T03:52:29;9.52;;;7.25;;
47365;SDS011;33105;47.964;7.982;2023-06-04T03:55:33;11.75;;;6.97;;
47365;SDS011;33105;47.964;7.982;2023-06-04T03:58:35;9.50;;;6.85;;
47365;SDS011;33105;47.964;7.982;2023-06-04T04:01:37;10.50;;;7.13;;
47365;SDS011;33105;47.964;7.982;2023-06-04T04:04:39;8.45;;;7.05;;
47365;SDS011;33105;47.964;7.982;2023-06-04T04:07:41;11.25;;;7.68;;
47365;SDS011;33105;47.964;7.982;2023-06-04T04:10:43;9.32;;;7.05;;
47365;SDS011;33105;47.964;7.982;2023-06-04T04:13:45;10.88;;;7.38;;
47365;SDS011;33105;47.964;7.982;2023-06-04T04:16:47;17.30;;;6.95;;
47365;SDS011;33105;47.964;7.982;2023-06-04T04:19:48;9.32;;;6.80;;
47365;SDS011;33105;47.964;7.982;2023-06-04T04:22:49;9.88;;;7.43;;
47365;SDS011;33105;47.964;7.982;2023-06-04T04:25:51;10.75;;;7.20;;
47365;SDS011;33105;47.964;7.982;2023-06-04T04:28:54;10.30;;;7.80;;
47365;SDS011;33105;47.964;7.982;2023-06-04T04:31:59;13.00;;;7.65;;
47365;SDS011;33105;47.964;7.982;2023-06-04T04:35:02;10.35;;;7.35;;
47365;SDS011;33105;47.964;7.982;2023-06-04T04:38:10;12.45;;;7.80;;
47365;SDS011;33105;47.964;7.982;2023-06-04T04:41:17;12.73;;;8.77;;
47365;SDS011;33105;47.964;7.982;2023-06-04T04:44:18;11.48;;;8.90;;
47365;SDS011;33105;47.964;7.982;2023-06-04T04:47:20;12.85;;;8.38;;
47365;SDS011;33105;47.964;7.982;2023-06-04T04:50:22;13.60;;;8.55;;
47365;SDS011;33105;47.964;7.982;2023-06-04T04:53:23;14.98;;;9.05;;
47365;SDS011;33105;47.964;7.982;2023-06-04T04:56:25;13.40;;;9.00;;
47365;SDS011;33105;47.964;7.982;2023-06-04T04:59:27;11.25;;;8.43;;
47365;SDS011;33105;47.964;7.982;2023-06-04T05:02:30;10.73;;;7.88;;
47365;SDS011;33105;47.964;7.982;2023-06-04T05:05:31;14.45;;;8.15;;
47365;SDS011;33105;47.964;7.982;2023-06-04T05:08:34;11.95;;;7.53;;
47365;SDS011;33105;47.964;7.982;2023-06-04T05:11:35;10.32;;;7.75;;
47365;SDS011;33105;47.964;7.982;2023-06-04T05:14:36;10.73;;;7.22;;
47365;SDS011;33105;47.964;7.982;2023-06-04T05:17:39;12.30;;;7.60;;
47365;SDS011;33105;47.964;7.982;2023-06-04T05:20:43;8.38;;;7.32;;
47365;SDS011;33105;47.964;7.982;2023-06-04T05:23:46;11.00;;;7.57;;
47365;SDS011;33105;47.964;7.982;2023-06-04T05:26:50;13.68;;;7.95;;
47365;SDS011;33105;47.964;7.982;2023-06-04T05:29:54;13.52;;;8.25;;
47365;SDS011;33105;47.964;7.982;2023-06-04T05:32:56;11.07;;;8.45;;
47365;SDS011;33105;47.964;7.982;2023-06-04T05:36:00;10.98;;;8.35;;
47365;SDS011;33105;47.964;7.982;2023-06-04T05:39:06;10.82;;;8.63;;
47365;SDS011;33105;47.964;7.982;2023-06-04T05:42:33;13.50;;;9.23;;
47365;SDS011;33105;47.964;7.982;2023-06-04T05:45:34;12.73;;;9.27;;
47365;SDS011;33105;47.964;7.982;2023-06-04T05:48:36;11.80;;;8.95;;
47365;SDS011;33105;47.964;7.982;2023-06-04T05:51:37;11.75;;;8.88;;
47365;SDS011;33105;47.964;7.982;2023-06-04T05:54:39;12.68;;;8.38;;
47365;SDS011;33105;47.964;7.982;2023-06-04T05:57:41;15.85;;;8.63;;
47365;SDS011;33105;47.964;7.982;2023-06-04T06:00:42;17.00;;;9.52;;
47365;SDS011;33105;47.964;7.982;2023-06-04T06:03:45;13.27;;;8.07;;
47365;SDS011;33105;47.964;7.982;2023-06-04T06:06:47;14.02;;;8.13;;
47365;SDS011;33105;47.964;7.982;2023-06-04T06:09:49;11.15;;;8.60;;
47365;SDS011;33105;47.964;7.982;2023-06-04T06:12:50;13.85;;;7.90;;
47365;SDS011;33105;47.964;7.982;2023-06-04T06:15:52;12.32;;;7.93;;
47365;SDS011;33105;47.964;7.982;2023-06-04T06:18:56;11.07;;;8.23;;
47365;SDS011;33105;47.964;7.982;2023-06-04T06:21:57;14.60;;;8.35;;
47365;SDS011;33105;47.964;7.982;2023-06-04T06:25:01;11.57;;;8.05;;
47365;SDS011;33105;47.964;7.982;2023-06-04T06:28:03;14.63;;;8.65;;
47365;SDS011;33105;47.964;7.982;2023-06-04T06:31:05;15.50;;;9.13;;
47365;SDS011;33105;47.964;7.982;2023-06-04T06:34:06;12.85;;;8.27;;
47365;SDS011;33105;47.964;7.982;2023-06-04T06:37:08;13.15;;;8.93;;
47365;SDS011;33105;47.964;7.982;2023-06-04T06:40:09;12.60;;;8.15;;
47365;SDS011;33105;47.964;7.982;2023-06-04T06:43:11;10.52;;;7.55;;
47365;SDS011;33105;47.964;7.982;2023-06-04T06:46:12;14.15;;;8.43;;
47365;SDS011;33105;47.964;7.982;2023-06-04T06:49:13;11.70;;;8.23;;
47365;SDS011;33105;47.964;7.982;2023-06-04T06:52:15;15.07;;;8.68;;
47365;SDS011;33105;47.964;7.982;2023-06-04T06:55:20;16.27;;;8.35;;
47365;SDS011;33105;47.964;7.982;2023-06-04T06:58:21;11.68;;;8.07;;
47365;SDS011;33105;47.964;7.982;2023-06-04T07:01:24;13.68;;;8.20;;
47365;SDS011;33105;47.964;7.982;2023-06-04T07:04:25;10.60;;;7.03;;
47365;SDS011;33105;47.964;7.982;2023-06-04T07:07:27;12.82;;;7.85;;
47365;SDS011;33105;47.964;7.982;2023-06-04T07:10:29;14.15;;;8.40;;
47365;SDS011;33105;47.964;7.982;2023-06-04T07:13:30;11.40;;;7.50;;
47365;SDS011;33105;47.964;7.982;2023-06-04T07:16:34;11.88;;;7.53;;
47365;SDS011;33105;47.964;7.982;2023-06-04T07:19:35;14.52;;;7.40;;
47365;SDS011;33105;47.964;7.982;2023-06-04T07:22:37;11.80;;;7.47;;
47365;SDS011;33105;47.964;7.982;2023-06-04T07:25:38;10.80;;;7.60;;
47365;SDS011;33105;47.964;7.982;2023-06-04T07:28:40;13.20;;;7.63;;
47365;SDS011;33105;47.964;7.982;2023-06-04T07:31:41;11.48;;;7.75;;
47365;SDS011;33105;47.964;7.982;2023-06-04T07:34:43;12.23;;;7.60;;
47365;SDS011;33105;47.964;7.982;2023-06-04T07:37:44;10.52;;;7.18;;
47365;SDS011;33105;47.964;7.982;2023-06-04T07:40:46;9.65;;;6.75;;
47365;SDS011;33105;47.964;7.982;2023-06-04T07:43:48;8.63;;;6.38;;
47365;SDS011;33105;47.964;7.982;2023-06-04T07:46:49;10.63;;;6.10;;
47365;SDS011;33105;47.964;7.982;2023-06-04T07:49:50;13.73;;;6.68;;
47365;SDS011;33105;47.964;7.982;2023-06-04T07:52:52;10.90;;;6.10;;
47365;SDS011;33105;47.964;7.982;2023-06-04T07:55:53;8.70;;;6.65;;
47365;SDS011;33105;47.964;7.982;2023-06-04T07:58:55;10.85;;;6.65;;
47365;SDS011;33105;47.964;7.982;2023-06-04T08:01:56;11.98;;;6.70;;
47365;SDS011;33105;47.964;7.982;2023-06-04T08:04:57;8.05;;;6.25;;
47365;SDS011;33105;47.964;7.982;2023-06-04T08:07:59;9.25;;;6.40;;
47365;SDS011;33105;47.964;7.982;2023-06-04T08:11:00;9.85;;;6.50;;
47365;SDS011;33105;47.964;7.982;2023-06-04T08:14:01;11.90;;;6.38;;
47365;SDS011;33105;47.964;7.982;2023-06-04T08:17:02;11.00;;;6.22;;
47365;SDS011;33105;47.964;7.982;2023-06-04T08:20:04;10.90;;;6.50;;
47365;SDS011;33105;47.964;7.982;2023-06-04T08:23:09;11.02;;;6.20;;
47365;SDS011;33105;47.964;7.982;2023-06-04T08:26:11;11.75;;;6.00;;
47365;SDS011;33105;47.964;7.982;2023-06-04T08:29:12;11.77;;;6.32;;
47365;SDS011;33105;47.964;7.982;2023-06-04T08:32:13;14.32;;;6.63;;
47365;SDS011;33105;47.964;7.982;2023-06-04T08:35:14;9.80;;;6.65;;
47365;SDS011;33105;47.964;7.982;2023-06-04T08:38:15;9.77;;;6.78;;
47365;SDS011;33105;47.964;7.982;2023-06-04T08:41:23;8.85;;;6.18;;
47365;SDS011;33105;47.964;7.982;2023-06-04T08:44:29;13.27;;;6.05;;
47365;SDS011;33105;47.964;7.982;2023-06-04T08:47:32;10.52;;;5.40;;
47365;SDS011;33105;47.964;7.982;2023-06-04T08:50:36;10.20;;;5.32;;
47365;SDS011;33105;47.964;7.982;2023-06-04T08:53:40;14.57;;;5.68;;
47365;SDS011;33105;47.964;7.982;2023-06-04T08:56:43;10.93;;;5.75;;
47365;SDS011;33105;47.964;7.982;2023-06-04T08:59:46;8.32;;;5.03;;
47365;SDS011;33105;47.964;7.982;2023-06-04T09:02:49;12.40;;;5.63;;
47365;SDS011;33105;47.964;7.982;2023-06-04T09:05:50;7.68;;;4.80;;
47365;SDS011;33105;47.964;7.982;2023-06-04T09:08:54;11.70;;;5.35;;
47365;SDS011;33105;47.964;7.982;2023-06-04T09:11:58;10.82;;;4.90;;
47365;SDS011;33105;47.964;7.982;2023-06-04T09:15:04;21.50;;;5.90;;
47365;SDS011;33105;47.964;7.982;2023-06-04T09:18:05;16.80;;;6.22;;
47365;SDS011;33105;47.964;7.982;2023-06-04T09:21:07;17.05;;;5.80;;
47365;SDS011;33105;47.964;7.982;2023-06-04T09:24:09;15.32;;;5.82;;
47365;SDS011;33105;47.964;7.982;2023-06-04T09:27:11;13.27;;;5.72;;
47365;SDS011;33105;47.964;7.982;2023-06-04T09:30:15;12.60;;;6.05;;
47365;SDS011;33105;47.964;7.982;2023-06-04T09:33:17;10.15;;;6.10;;
47365;SDS011;33105;47.964;7.982;2023-06-04T09:36:18;9.55;;;5.40;;
47365;SDS011;33105;47.964;7.982;2023-06-04T09:39:19;9.57;;;5.80;;
47365;SDS011;33105;47.964;7.982;2023-06-04T09:42:22;10.73;;;5.97;;
47365;SDS011;33105;47.964;7.982;2023-06-04T09:45:30;11.93;;;6.88;;
47365;SDS011;33105;47.964;7.982;2023-06-04T09:48:33;12.10;;;6.57;;
47365;SDS011;33105;47.964;7.982;2023-06-04T09:51:34;10.27;;;5.30;;
47365;SDS011;33105;47.964;7.982;2023-06-04T09:54:35;9.82;;;5.80;;
47365;SDS011;33105;47.964;7.982;2023-06-04T09:57:38;10.82;;;6.47;;
47365;SDS011;33105;47.964;7.982;2023-06-04T10:00:40;10.15;;;5.82;;
47365;SDS011;33105;47.964;7.982;2023-06-04T10:03:44;11.43;;;5.75;;
47365;SDS011;33105;47.964;7.982;2023-06-04T10:06:48;13.20;;;6.20;;
47365;SDS011;33105;47.964;7.982;2023-06-04T10:09:50;9.13;;;5.97;;
47365;SDS011;33105;47.964;7.982;2023-06-04T10:12:54;9.15;;;5.97;;
47365;SDS011;33105;47.964;7.982;2023-06-04T10:16:04;10.07;;;5.68;;
47365;SDS011;33105;47.964;7.982;2023-06-04T10:19:07;7.78;;;5.20;;
47365;SDS011;33105;47.964;7.982;2023-06-04T10:22:09;9.23;;;5.32;;
47365;SDS011;33105;47.964;7.982;2023-06-04T10:25:12;9.15;;;5.25;;
47365;SDS011;33105;47.964;7.982;2023-06-04T10:28:13;9.68;;;6.13;;
47365;SDS011;33105;47.964;7.982;2023-06-04T10:31:16;9.73;;;5.32;;
47365;SDS011;33105;47.964;7.982;2023-06-04T10:34:18;9.65;;;5.65;;
47365;SDS011;33105;47.964;7.982;2023-06-04T10:37:20;10.55;;;5.97;;
47365;SDS011;33105;47.964;7.982;2023-06-04T10:40:33;10.75;;;6.13;;
47365;SDS011;33105;47.964;7.982;2023-06-04T10:43:34;11.27;;;5.68;;
47365;SDS011;33105;47.964;7.982;2023-06-04T10:46:39;8.80;;;5.53;;
47365;SDS011;33105;47.964;7.982;2023-06-04T10:49:41;12.00;;;5.82;;
47365;SDS011;33105;47.964;7.982;2023-06-04T10:52:52;8.70;;;5.47;;
47365;SDS011;33105;47.964;7.982;2023-06-04T10:55:54;11.50;;;5.72;;
47365;SDS011;33105;47.964;7.982;2023-06-04T10:58:56;8.40;;;5.97;;
47365;SDS011;33105;47.964;7.982;2023-06-04T11:02:04;12.07;;;6.60;;
47365;SDS011;33105;47.964;7.982;2023-06-04T11:05:09;8.23;;;5.40;;
47365;SDS011;33105;47.964;7.982;2023-06-04T11:08:11;10.40;;;4.95;;
47365;SDS011;33105;47.964;7.982;2023-06-04T11:11:15;6.68;;;4.85;;
47365;SDS011;33105;47.964;7.982;2023-06-04T11:14:17;8.43;;;4.90;;
47365;SDS011;33105;47.964;7.982;2023-06-04T11:17:18;10.00;;;5.07;;
47365;SDS011;33105;47.964;7.982;2023-06-04T11:20:20;7.38;;;4.40;;
47365;SDS011;33105;47.964;7.982;2023-06-04T11:23:22;9.43;;;4.63;;
47365;SDS011;33105;47.964;7.982;2023-06-04T11:26:36;8.95;;;4.72;;
47365;SDS011;33105;47.964;7.982;2023-06-04T11:29:38;11.15;;;4.80;;
47365;SDS011;33105;47.964;7.982;2023-06-04T11:32:39;7.85;;;4.78;;
47365;SDS011;33105;47.964;7.982;2023-06-04T11:35:41;8.75;;;4.85;;
47365;SDS011;33105;47.964;7.982;2023-06-04T11:38:53;8.10;;;4.85;;
47365;SDS011;33105;47.964;7.982;2023-06-04T11:41:55;6.55;;;4.85;;
47365;SDS011;33105;47.964;7.982;2023-06-04T11:44:58;11.60;;;5.10;;
47365;SDS011;33105;47.964;7.982;2023-06-04T11:47:59;8.55;;;4.90;;
47365;SDS011;33105;47.964;7.982;2023-06-04T11:51:04;6.28;;;4.32;;
47365;SDS011;33105;47.964;7.982;2023-06-04T11:54:09;8.57;;;5.80;;
47365;SDS011;33105;47.964;7.982;2023-06-04T11:57:11;7.72;;;4.80;;
47365;SDS011;33105;47.964;7.982;2023-06-04T12:00:12;5.70;;;4.45;;
47365;SDS011;33105;47.964;7.982;2023-06-04T12:03:16;6.85;;;4.30;;
47365;SDS011;33105;47.964;7.982;2023-06-04T12:06:17;6.88;;;4.93;;
47365;SDS011;33105;47.964;7.982;2023-06-04T12:09:24;7.05;;;4.45;;
47365;SDS011;33105;47.964;7.982;2023-06-04T12:12:30;11.68;;;4.90;;
47365;SDS011;33105;47.964;7.982;2023-06-04T12:15:31;6.50;;;4.63;;
47365;SDS011;33105;47.964;7.982;2023-06-04T12:18:32;5.57;;;4.20;;
47365;SDS011;33105;47.964;7.982;2023-06-04T12:21:33;12.05;;;4.88;;
47365;SDS011;33105;47.964;7.982;2023-06-04T12:24:45;6.75;;;4.40;;
47365;SDS011;33105;47.964;7.982;2023-06-04T12:27:48;7.25;;;4.30;;
47365;SDS011;33105;47.964;7.982;2023-06-04T12:30:49;8.18;;;5.07;;
47365;SDS011;33105;47.964;7.982;2023-06-04T12:33:50;9.73;;;4.53;;
47365;SDS011;33105;47.964;7.982;2023-06-04T12:36:52;9.77;;;4.53;;
47365;SDS011;33105;47.964;7.982;2023-06-04T12:39:56;6.50;;;4.63;;
47365;SDS011;33105;47.964;7.982;2023-06-04T12:42:57;7.65;;;4.38;;
47365;SDS011;33105;47.964;7.982;2023-06-04T12:45:58;9.40;;;4.30;;
47365;SDS011;33105;47.964;7.982;2023-06-04T12:48:59;5.18;;;4.07;;
47365;SDS011;33105;47.964;7.982;2023-06-04T12:52:01;6.35;;;4.28;;
47365;SDS011;33105;47.964;7.982;2023-06-04T12:55:02;8.32;;;4.20;;
47365;SDS011;33105;47.964;7.982;2023-06-04T12:58:03;6.05;;;3.85;;
47365;SDS011;33105;47.964;7.982;2023-06-04T13:01:05;7.65;;;4.35;;
47365;SDS011;33105;47.964;7.982;2023-06-04T13:04:06;5.57;;;3.95;;
47365;SDS011;33105;47.964;7.982;2023-06-04T13:07:07;6.95;;;4.82;;
47365;SDS011;33105;47.964;7.982;2023-06-04T13:10:08;9.60;;;4.20;;
47365;SDS011;33105;47.964;7.982;2023-06-04T13:13:10;8.30;;;3.95;;
47365;SDS011;33105;47.964;7.982;2023-06-04T13:16:11;10.73;;;5.43;;
47365;SDS011;33105;47.964;7.982;2023-06-04T13:19:12;10.23;;;4.50;;
47365;SDS011;33105;47.964;7.982;2023-06-04T13:22:13;10.70;;;4.85;;
47365;SDS011;33105;47.964;7.982;2023-06-04T13:25:15;6.88;;;4.60;;
47365;SDS011;33105;47.964;7.982;2023-06-04T13:28:16;9.82;;;5.00;;
47365;SDS011;33105;47.964;7.982;2023-06-04T13:31:18;4.60;;;3.90;;
47365;SDS011;33105;47.964;7.982;2023-06-04T13:34:19;6.95;;;4.70;;
47365;SDS011;33105;47.964;7.982;2023-06-04T13:37:21;6.65;;;4.85;;
47365;SDS011;33105;47.964;7.982;2023-06-04T13:40:22;12.02;;;4.85;;
47365;SDS011;33105;47.964;7.982;2023-06-04T13:43:23;7.55;;;4.25;;
47365;SDS011;33105;47.964;7.982;2023-06-04T13:46:24;5.22;;;4.30;;
47365;SDS011;33105;47.964;7.982;2023-06-04T13:49:26;5.85;;;4.18;;
47365;SDS011;33105;47.964;7.982;2023-06-04T13:52:27;6.45;;;4.50;;
47365;SDS011;33105;47.964;7.982;2023-06-04T13:55:29;7.35;;;4.60;;
47365;SDS011;33105;47.964;7.982;2023-06-04T13:58:31;6.10;;;3.97;;
47365;SDS011;33105;47.964;7.982;2023-06-04T14:01:32;8.75;;;4.75;;
47365;SDS011;33105;47.964;7.982;2023-06-04T14:04:33;5.85;;;4.00;;
47365;SDS011;33105;47.964;7.982;2023-06-04T14:07:35;11.32;;;4.18;;
47365;SDS011;33105;47.964;7.982;2023-06-04T14:10:36;7.70;;;4.07;;
47365;SDS011;33105;47.964;7.982;2023-06-04T14:13:41;6.28;;;4.20;;
47365;SDS011;33105;47.964;7.982;2023-06-04T14:16:45;4.88;;;4.18;;
47365;SDS011;33105;47.964;7.982;2023-06-04T14:19:46;7.18;;;3.80;;
47365;SDS011;33105;47.964;7.982;2023-06-04T14:22:48;5.95;;;3.85;;
47365;SDS011;33105;47.964;7.982;2023-06-04T14:25:49;8.65;;;5.10;;
47365;SDS011;33105;47.964;7.982;2023-06-04T14:28:50;6.78;;;4.65;;
47365;SDS011;33105;47.964;7.982;2023-06-04T14:31:52;8.70;;;4.13;;
47365;SDS011;33105;47.964;7.982;2023-06-04T14:34:53;5.68;;;3.67;;
47365;SDS011;33105;47.964;7.982;2023-06-04T14:37:54;6.25;;;4.03;;
47365;SDS011;33105;47.964;7.982;2023-06-04T14:40:55;11.27;;;4.05;;
47365;SDS011;33105;47.964;7.982;2023-06-04T14:43:57;6.20;;;3.40;;
47365;SDS011;33105;47.964;7.982;2023-06-04T14:46:58;6.07;;;3.70;;
47365;SDS011;33105;47.964;7.982;2023-06-04T14:50:00;12.95;;;3.13;;
47365;SDS011;33105;47.964;7.982;2023-06-04T14:53:01;4.78;;;3.22;;
47365;SDS011;33105;47.964;7.982;2023-06-04T14:56:03;5.68;;;3.17;;
47365;SDS011;33105;47.964;7.982;2023-06-04T14:59:04;7.22;;;2.85;;
47365;SDS011;33105;47.964;7.982;2023-06-04T15:02:12;4.70;;;3.38;;
47365;SDS011;33105;47.964;7.982;2023-06-04T15:05:13;7.75;;;3.30;;
47365;SDS011;33105;47.964;7.982;2023-06-04T15:08:14;6.32;;;3.50;;
47365;SDS011;33105;47.964;7.982;2023-06-04T15:11:15;4.20;;;3.10;;
47365;SDS011;33105;47.964;7.982;2023-06-04T15:14:17;4.93;;;3.65;;
47365;SDS011;33105;47.964;7.982;2023-06-04T15:17:18;5.93;;;3.58;;
47365;SDS011;33105;47.964;7.982;2023-06-04T15:20:19;6.50;;;3.35;;
47365;SDS011;33105;47.964;7.982;2023-06-04T15:23:20;6.95;;;2.90;;
47365;SDS011;33105;47.964;7.982;2023-06-04T15:26:22;5.05;;;3.05;;
47365;SDS011;33105;47.964;7.982;2023-06-04T15:29:24;4.03;;;2.80;;
47365;SDS011;33105;47.964;7.982;2023-06-04T15:32:26;4.10;;;2.95;;
47365;SDS011;33105;47.964;7.982;2023-06-04T15:35:27;4.13;;;2.83;;
47365;SDS011;33105;47.964;7.982;2023-06-04T15:38:28;4.13;;;2.97;;
47365;SDS011;33105;47.964;7.982;2023-06-04T15:41:29;5.72;;;3.10;;
47365;SDS011;33105;47.964;7.982;2023-06-04T15:44:31;3.58;;;2.80;;
47365;SDS011;33105;47.964;7.982;2023-06-04T15:47:32;3.45;;;2.60;;
47365;SDS011;33105;47.964;7.982;2023-06-04T15:50:33;5.28;;;2.47;;
47365;SDS011;33105;47.964;7.982;2023-06-04T15:53:34;3.03;;;2.70;;
47365;SDS011;33105;47.964;7.982;2023-06-04T15:56:35;5.75;;;2.30;;
47365;SDS011;33105;47.964;7.982;2023-06-04T15:59:37;5.63;;;2.45;;
47365;SDS011;33105;47.964;7.982;2023-06-04T16:02:38;5.03;;;1.70;;
47365;SDS011;33105;47.964;7.982;2023-06-04T16:05:39;3.60;;;2.40;;
47365;SDS011;33105;47.964;7.982;2023-06-04T16:08:40;4.75;;;2.20;;
47365;SDS011;33105;47.964;7.982;2023-06-04T16:11:42;2.63;;;1.88;;
47365;SDS011;33105;47.964;7.982;2023-06-04T16:14:43;2.03;;;1.80;;
47365;SDS011;33105;47.964;7.982;2023-06-04T16:17:44;3.15;;;1.88;;
47365;SDS011;33105;47.964;7.982;2023-06-04T16:20:48;3.25;;;2.30;;
47365;SDS011;33105;47.964;7.982;2023-06-04T16:23:49;3.35;;;2.30;;
47365;SDS011;33105;47.964;7.982;2023-06-04T16:26:51;2.47;;;1.90;;
47365;SDS011;33105;47.964;7.982;2023-06-04T16:29:52;4.60;;;2.20;;
47365;SDS011;33105;47.964;7.982;2023-06-04T16:32:53;2.88;;;2.20;;
47365;SDS011;33105;47.964;7.982;2023-06-04T16:35:55;2.28;;;1.90;;
47365;SDS011;33105;47.964;7.982;2023-06-04T16:38:56;3.10;;;2.25;;
47365;SDS011;33105;47.964;7.982;2023-06-04T16:41:57;3.92;;;2.28;;
47365;SDS011;33105;47.964;7.982;2023-06-04T16:45:02;3.80;;;2.70;;
47365;SDS011;33105;47.964;7.982;2023-06-04T16:48:04;3.60;;;2.92;;
47365;SDS011;33105;47.964;7.982;2023-06-04T16:51:05;4.63;;;3.40;;
47365;SDS011;33105;47.964;7.982;2023-06-04T16:54:07;4.75;;;3.35;;
47365;SDS011;33105;47.964;7.982;2023-06-04T16:57:08;5.18;;;3.35;;
47365;SDS011;33105;47.964;7.982;2023-06-04T17:00:10;8.15;;;3.95;;
47365;SDS011;33105;47.964;7.982;2023-06-04T17:03:11;6.28;;;3.47;;
47365;SDS011;33105;47.964;7.982;2023-06-04T17:06:13;6.32;;;4.00;;
47365;SDS011;33105;47.964;7.982;2023-06-04T17:09:14;4.57;;;3.58;;
47365;SDS011;33105;47.964;7.982;2023-06-04T17:12:15;8.10;;;3.60;;
47365;SDS011;33105;47.964;7.982;2023-06-04T17:15:16;5.38;;;3.70;;
47365;SDS011;33105;47.964;7.982;2023-06-04T17:18:18;6.82;;;3.63;;
47365;SDS011;33105;47.964;7.982;2023-06-04T17:21:20;6.18;;;4.32;;
47365;SDS011;33105;47.964;7.982;2023-06-04T17:24:21;4.75;;;3.67;;
47365;SDS011;33105;47.964;7.982;2023-06-04T17:27:22;5.55;;;3.78;;
47365;SDS011;33105;47.964;7.982;2023-06-04T17:30:23;5.93;;;3.75;;
47365;SDS011;33105;47.964;7.982;2023-06-04T17:33:25;6.50;;;4.00;;
47365;SDS011;33105;47.964;7.982;2023-06-04T17:36:26;4.15;;;3.53;;
47365;SDS011;33105;47.964;7.982;2023-06-04T17:39:27;4.90;;;3.70;;
47365;SDS011;33105;47.964;7.982;2023-06-04T17:42:29;5.03;;;3.70;;
47365;SDS011;33105;47.964;7.982;2023-06-04T17:45:30;4.50;;;3.95;;
47365;SDS011;33105;47.964;7.982;2023-06-04T17:48:31;5.93;;;3.50;;
47365;SDS011;33105;47.964;7.982;2023-06-04T17:51:32;4.82;;;3.97;;
47365;SDS011;33105;47.964;7.982;2023-06-04T17:54:33;7.20;;;4.22;;
47365;SDS011;33105;47.964;7.982;2023-06-04T17:57:35;8.07;;;3.72;;
47365;SDS011;33105;47.964;7.982;2023-06-04T18:00:36;7.13;;;3.72;;
47365;SDS011;33105;47.964;7.982;2023-06-04T18:03:37;6.80;;;4.10;;
47365;SDS011;33105;47.964;7.982;2023-06-04T18:06:38;5.90;;;3.78;;
47365;SDS011;33105;47.964;7.982;2023-06-04T18:09:40;5.22;;;4.05;;